sensor_id;sensor_type;location;lat;lon;timestamp;temperature;humidity
15409;DHT22;7803;48.130;13.788;2022-07-25T00:00:35;27.20;93.30
15409;DHT22;7803;48.130;13.788;2022-07-25T00:03:37;27.20;93.30
15409;DHT22;7803;48.130;13.788;2022-07-25T00:06:40;27.20;93.30
15409;DHT22;7803;48.130;13.788;2022-07-25T00:09:43;27.30;93.40
15409;DHT22;7803;48.130;13.788;2022-07-25T00:12:45;27.20;93.40
15409;DHT22;7803;48.130;13.788;2022-07-25T00:15:47;27.20;93.40
15409;DHT22;7803;48.130;13.788;2022-07-25T00:18:49;27.30;93.30
15409;DHT22;7803;48.130;13.788;2022-07-25T00:21:51;27.20;93.20
15409;DHT22;7803;48.130;13.788;2022-07-25T00:24:54;27.20;93.20
15409;DHT22;7803;48.130;13.788;2022-07-25T00:27:56;27.20;93.30
15409;DHT22;7803;48.130;13.788;2022-07-25T00:30:58;27.20;93.30
15409;DHT22;7803;48.130;13.788;2022-07-25T00:34:00;27.20;93.30
15409;DHT22;7803;48.130;13.788;2022-07-25T00:37:03;27.20;93.20
15409;DHT22;7803;48.130;13.788;2022-07-25T00:40:08;27.20;93.20
15409;DHT22;7803;48.130;13.788;2022-07-25T00:43:10;27.20;93.10
15409;DHT22;7803;48.130;13.788;2022-07-25T00:46:12;27.20;93.20
15409;DHT22;7803;48.130;13.788;2022-07-25T00:49:14;27.20;93.30
15409;DHT22;7803;48.130;13.788;2022-07-25T00:52:16;27.20;93.30
15409;DHT22;7803;48.130;13.788;2022-07-25T00:55:20;27.20;93.30
15409;DHT22;7803;48.130;13.788;2022-07-25T00:58:24;27.20;93.30
15409;DHT22;7803;48.130;13.788;2022-07-25T01:01:26;27.30;93.40
15409;DHT22;7803;48.130;13.788;2022-07-25T01:04:28;27.20;93.30
15409;DHT22;7803;48.130;13.788;2022-07-25T01:07:30;27.20;93.30
15409;DHT22;7803;48.130;13.788;2022-07-25T01:10:34;27.20;93.20
15409;DHT22;7803;48.130;13.788;2022-07-25T01:13:36;27.20;93.10
15409;DHT22;7803;48.130;13.788;2022-07-25T01:16:38;27.20;93.10
15409;DHT22;7803;48.130;13.788;2022-07-25T01:19:41;27.20;93.10
15409;DHT22;7803;48.130;13.788;2022-07-25T01:22:45;27.20;93.10
15409;DHT22;7803;48.130;13.788;2022-07-25T01:25:47;27.20;93.10
15409;DHT22;7803;48.130;13.788;2022-07-25T01:28:49;27.20;93.10
15409;DHT22;7803;48.130;13.788;2022-07-25T01:31:52;27.20;93.10
15409;DHT22;7803;48.130;13.788;2022-07-25T01:34:54;27.20;93.20
15409;DHT22;7803;48.130;13.788;2022-07-25T01:37:57;27.20;93.20
15409;DHT22;7803;48.130;13.788;2022-07-25T01:40:59;27.20;93.30
15409;DHT22;7803;48.130;13.788;2022-07-25T01:44:01;27.20;93.20
15409;DHT22;7803;48.130;13.788;2022-07-25T01:47:03;27.20;93.20
15409;DHT22;7803;48.130;13.788;2022-07-25T01:50:06;27.20;93.10
15409;DHT22;7803;48.130;13.788;2022-07-25T01:53:10;27.20;93.10
15409;DHT22;7803;48.130;13.788;2022-07-25T01:56:12;27.20;93.00
15409;DHT22;7803;48.130;13.788;2022-07-25T01:59:14;27.20;93.00
15409;DHT22;7803;48.130;13.788;2022-07-25T02:02:16;27.20;93.00
15409;DHT22;7803;48.130;13.788;2022-07-25T02:05:18;27.20;93.00
15409;DHT22;7803;48.130;13.788;2022-07-25T02:08:21;27.20;93.00
15409;DHT22;7803;48.130;13.788;2022-07-25T02:11:23;27.20;92.90
15409;DHT22;7803;48.130;13.788;2022-07-25T02:14:25;27.20;92.90
15409;DHT22;7803;48.130;13.788;2022-07-25T02:17:27;27.20;92.90
15409;DHT22;7803;48.130;13.788;2022-07-25T02:20:29;27.20;92.90
15409;DHT22;7803;48.130;13.788;2022-07-25T02:23:33;27.20;93.00
15409;DHT22;7803;48.130;13.788;2022-07-25T02:26:35;27.10;93.00
15409;DHT22;7803;48.130;13.788;2022-07-25T02:29:38;27.20;93.00
15409;DHT22;7803;48.130;13.788;2022-07-25T02:32:39;27.20;93.00
15409;DHT22;7803;48.130;13.788;2022-07-25T02:35:41;27.20;92.90
15409;DHT22;7803;48.130;13.788;2022-07-25T02:38:45;27.20;92.90
15409;DHT22;7803;48.130;13.788;2022-07-25T02:41:47;27.20;92.80
15409;DHT22;7803;48.130;13.788;2022-07-25T02:44:49;27.20;92.80
15409;DHT22;7803;48.130;13.788;2022-07-25T02:47:51;27.20;92.70
15409;DHT22;7803;48.130;13.788;2022-07-25T02:50:53;27.20;92.70
15409;DHT22;7803;48.130;13.788;2022-07-25T02:53:56;27.20;92.70
15409;DHT22;7803;48.130;13.788;2022-07-25T02:56:58;27.20;92.60
15409;DHT22;7803;48.130;13.788;2022-07-25T03:00:00;27.20;92.60
15409;DHT22;7803;48.130;13.788;2022-07-25T03:03:03;27.20;92.60
15409;DHT22;7803;48.130;13.788;2022-07-25T03:06:05;27.10;92.70
15409;DHT22;7803;48.130;13.788;2022-07-25T03:09:08;27.20;92.80
15409;DHT22;7803;48.130;13.788;2022-07-25T03:12:10;27.10;92.80
15409;DHT22;7803;48.130;13.788;2022-07-25T03:15:13;27.20;92.80
15409;DHT22;7803;48.130;13.788;2022-07-25T03:18:15;27.20;92.80
15409;DHT22;7803;48.130;13.788;2022-07-25T03:21:17;27.20;92.70
15409;DHT22;7803;48.130;13.788;2022-07-25T03:24:20;27.20;92.70
15409;DHT22;7803;48.130;13.788;2022-07-25T03:27:22;27.10;92.60
15409;DHT22;7803;48.130;13.788;2022-07-25T03:30:24;27.20;92.50
15409;DHT22;7803;48.130;13.788;2022-07-25T03:33:26;27.20;92.50
15409;DHT22;7803;48.130;13.788;2022-07-25T03:36:28;27.10;92.90
15409;DHT22;7803;48.130;13.788;2022-07-25T03:39:32;27.10;92.50
15409;DHT22;7803;48.130;13.788;2022-07-25T03:42:34;27.10;92.50
15409;DHT22;7803;48.130;13.788;2022-07-25T03:45:36;27.10;92.50
15409;DHT22;7803;48.130;13.788;2022-07-25T03:48:38;27.10;92.40
15409;DHT22;7803;48.130;13.788;2022-07-25T03:51:40;27.10;92.50
15409;DHT22;7803;48.130;13.788;2022-07-25T03:54:43;27.10;92.60
15409;DHT22;7803;48.130;13.788;2022-07-25T03:57:45;27.10;92.60
15409;DHT22;7803;48.130;13.788;2022-07-25T04:00:47;27.10;92.60
15409;DHT22;7803;48.130;13.788;2022-07-25T04:03:49;27.10;92.60
15409;DHT22;7803;48.130;13.788;2022-07-25T04:06:51;27.20;92.60
15409;DHT22;7803;48.130;13.788;2022-07-25T04:09:54;27.10;92.50
15409;DHT22;7803;48.130;13.788;2022-07-25T04:12:56;27.10;92.50
15409;DHT22;7803;48.130;13.788;2022-07-25T04:15:58;27.20;92.50
15409;DHT22;7803;48.130;13.788;2022-07-25T04:19:00;27.10;92.40
15409;DHT22;7803;48.130;13.788;2022-07-25T04:22:02;27.10;92.40
15409;DHT22;7803;48.130;13.788;2022-07-25T04:25:07;27.10;92.80
15409;DHT22;7803;48.130;13.788;2022-07-25T04:28:09;27.10;92.30
15409;DHT22;7803;48.130;13.788;2022-07-25T04:31:11;27.10;92.40
15409;DHT22;7803;48.130;13.788;2022-07-25T04:34:13;27.10;92.40
15409;DHT22;7803;48.130;13.788;2022-07-25T04:37:15;27.10;92.50
15409;DHT22;7803;48.130;13.788;2022-07-25T04:40:19;27.10;92.50
15409;DHT22;7803;48.130;13.788;2022-07-25T04:43:21;27.10;92.60
15409;DHT22;7803;48.130;13.788;2022-07-25T04:46:23;27.10;92.60
15409;DHT22;7803;48.130;13.788;2022-07-25T04:49:25;27.10;92.60
15409;DHT22;7803;48.130;13.788;2022-07-25T04:52:27;27.10;92.60
15409;DHT22;7803;48.130;13.788;2022-07-25T04:55:30;27.20;92.50
15409;DHT22;7803;48.130;13.788;2022-07-25T04:58:33;27.10;92.50
15409;DHT22;7803;48.130;13.788;2022-07-25T05:01:35;27.10;92.40
15409;DHT22;7803;48.130;13.788;2022-07-25T05:04:37;27.10;92.30
15409;DHT22;7803;48.130;13.788;2022-07-25T05:07:39;27.20;92.30
15409;DHT22;7803;48.130;13.788;2022-07-25T05:10:42;27.10;92.20
15409;DHT22;7803;48.130;13.788;2022-07-25T05:13:44;27.10;92.20
15409;DHT22;7803;48.130;13.788;2022-07-25T05:16:46;27.10;92.10
15409;DHT22;7803;48.130;13.788;2022-07-25T05:19:48;27.20;92.00
15409;DHT22;7803;48.130;13.788;2022-07-25T05:22:50;27.10;92.00
15409;DHT22;7803;48.130;13.788;2022-07-25T05:25:54;27.10;91.90
15409;DHT22;7803;48.130;13.788;2022-07-25T05:28:56;27.20;91.90
15409;DHT22;7803;48.130;13.788;2022-07-25T05:31:58;27.20;91.90
15409;DHT22;7803;48.130;13.788;2022-07-25T05:35:00;27.20;91.90
15409;DHT22;7803;48.130;13.788;2022-07-25T05:38:02;27.20;91.80
15409;DHT22;7803;48.130;13.788;2022-07-25T05:41:05;27.20;91.50
15409;DHT22;7803;48.130;13.788;2022-07-25T05:44:07;27.20;91.20
15409;DHT22;7803;48.130;13.788;2022-07-25T05:47:10;27.20;91.30
15409;DHT22;7803;48.130;13.788;2022-07-25T05:50:12;27.20;91.40
15409;DHT22;7803;48.130;13.788;2022-07-25T05:53:14;27.20;91.40
15409;DHT22;7803;48.130;13.788;2022-07-25T05:56:17;27.10;91.20
15409;DHT22;7803;48.130;13.788;2022-07-25T05:59:19;27.20;91.20
15409;DHT22;7803;48.130;13.788;2022-07-25T06:02:21;27.20;91.10
15409;DHT22;7803;48.130;13.788;2022-07-25T06:05:23;27.20;91.20
15409;DHT22;7803;48.130;13.788;2022-07-25T06:08:25;27.20;91.30
15409;DHT22;7803;48.130;13.788;2022-07-25T06:11:29;27.20;91.50
15409;DHT22;7803;48.130;13.788;2022-07-25T06:14:31;27.20;91.60
15409;DHT22;7803;48.130;13.788;2022-07-25T06:17:33;27.20;91.70
15409;DHT22;7803;48.130;13.788;2022-07-25T06:20:35;27.20;91.70
15409;DHT22;7803;48.130;13.788;2022-07-25T06:23:37;27.20;91.60
15409;DHT22;7803;48.130;13.788;2022-07-25T06:26:41;27.20;91.50
15409;DHT22;7803;48.130;13.788;2022-07-25T06:29:43;27.20;91.50
15409;DHT22;7803;48.130;13.788;2022-07-25T06:32:45;27.30;91.40
15409;DHT22;7803;48.130;13.788;2022-07-25T06:35:47;27.30;91.40
15409;DHT22;7803;48.130;13.788;2022-07-25T06:38:49;27.30;91.40
15409;DHT22;7803;48.130;13.788;2022-07-25T06:41:52;27.30;91.10
15409;DHT22;7803;48.130;13.788;2022-07-25T06:44:54;27.30;91.00
15409;DHT22;7803;48.130;13.788;2022-07-25T06:47:56;27.30;90.80
15409;DHT22;7803;48.130;13.788;2022-07-25T06:50:58;27.30;91.20
15409;DHT22;7803;48.130;13.788;2022-07-25T06:54:00;27.30;91.10
15409;DHT22;7803;48.130;13.788;2022-07-25T06:57:04;27.30;91.00
15409;DHT22;7803;48.130;13.788;2022-07-25T07:00:08;27.30;90.90
15409;DHT22;7803;48.130;13.788;2022-07-25T07:03:10;27.30;90.80
15409;DHT22;7803;48.130;13.788;2022-07-25T07:06:13;27.30;90.90
15409;DHT22;7803;48.130;13.788;2022-07-25T07:09:15;27.30;90.70
15409;DHT22;7803;48.130;13.788;2022-07-25T07:12:18;27.30;90.80
15409;DHT22;7803;48.130;13.788;2022-07-25T07:15:20;27.30;90.80
15409;DHT22;7803;48.130;13.788;2022-07-25T07:18:22;27.30;90.70
15409;DHT22;7803;48.130;13.788;2022-07-25T07:21:24;27.30;90.60
15409;DHT22;7803;48.130;13.788;2022-07-25T07:24:26;27.30;90.80
15409;DHT22;7803;48.130;13.788;2022-07-25T07:27:30;27.30;90.80
15409;DHT22;7803;48.130;13.788;2022-07-25T07:30:32;27.30;90.90
15409;DHT22;7803;48.130;13.788;2022-07-25T07:33:34;27.30;91.00
15409;DHT22;7803;48.130;13.788;2022-07-25T07:36:37;27.30;90.90
15409;DHT22;7803;48.130;13.788;2022-07-25T07:39:39;27.30;91.00
15409;DHT22;7803;48.130;13.788;2022-07-25T07:42:44;27.30;91.00
15409;DHT22;7803;48.130;13.788;2022-07-25T07:45:47;27.30;90.80
15409;DHT22;7803;48.130;13.788;2022-07-25T07:48:48;27.30;90.70
15409;DHT22;7803;48.130;13.788;2022-07-25T07:51:50;27.30;90.90
15409;DHT22;7803;48.130;13.788;2022-07-25T07:54:53;27.30;91.10
15409;DHT22;7803;48.130;13.788;2022-07-25T07:58:16;27.30;91.30
15409;DHT22;7803;48.130;13.788;2022-07-25T08:01:18;27.30;91.20
15409;DHT22;7803;48.130;13.788;2022-07-25T08:04:20;27.40;91.20
15409;DHT22;7803;48.130;13.788;2022-07-25T08:07:22;27.40;91.20
15409;DHT22;7803;48.130;13.788;2022-07-25T08:10:27;27.30;91.40
15409;DHT22;7803;48.130;13.788;2022-07-25T08:13:31;27.40;91.60
15409;DHT22;7803;48.130;13.788;2022-07-25T08:16:34;27.30;91.60
15409;DHT22;7803;48.130;13.788;2022-07-25T08:19:36;27.30;91.50
15409;DHT22;7803;48.130;13.788;2022-07-25T08:22:39;27.30;91.70
15409;DHT22;7803;48.130;13.788;2022-07-25T08:25:42;27.30;92.10
15409;DHT22;7803;48.130;13.788;2022-07-25T08:28:45;27.30;92.20
15409;DHT22;7803;48.130;13.788;2022-07-25T08:31:47;27.30;92.20
15409;DHT22;7803;48.130;13.788;2022-07-25T08:34:49;27.30;92.30
15409;DHT22;7803;48.130;13.788;2022-07-25T08:37:52;27.30;92.30
15409;DHT22;7803;48.130;13.788;2022-07-25T08:40:55;27.40;92.40
15409;DHT22;7803;48.130;13.788;2022-07-25T08:44:00;27.40;92.50
15409;DHT22;7803;48.130;13.788;2022-07-25T08:47:03;27.30;92.60
15409;DHT22;7803;48.130;13.788;2022-07-25T08:50:07;27.40;92.70
15409;DHT22;7803;48.130;13.788;2022-07-25T08:53:10;27.30;92.50
15409;DHT22;7803;48.130;13.788;2022-07-25T08:56:12;27.40;92.50
15409;DHT22;7803;48.130;13.788;2022-07-25T08:59:15;27.40;92.40
15409;DHT22;7803;48.130;13.788;2022-07-25T09:02:17;27.40;92.40
15409;DHT22;7803;48.130;13.788;2022-07-25T09:05:20;27.30;92.60
15409;DHT22;7803;48.130;13.788;2022-07-25T09:08:22;27.40;92.70
15409;DHT22;7803;48.130;13.788;2022-07-25T09:11:29;27.40;92.90
15409;DHT22;7803;48.130;13.788;2022-07-25T09:14:41;27.40;92.90
15409;DHT22;7803;48.130;13.788;2022-07-25T09:17:49;27.40;93.00
15409;DHT22;7803;48.130;13.788;2022-07-25T09:20:54;27.40;93.20
15409;DHT22;7803;48.130;13.788;2022-07-25T09:24:07;27.30;93.70
15409;DHT22;7803;48.130;13.788;2022-07-25T09:27:10;27.30;93.80
15409;DHT22;7803;48.130;13.788;2022-07-25T09:30:15;27.40;93.80
15409;DHT22;7803;48.130;13.788;2022-07-25T09:33:17;27.40;93.70
15409;DHT22;7803;48.130;13.788;2022-07-25T09:36:19;27.40;94.00
15409;DHT22;7803;48.130;13.788;2022-07-25T09:39:32;27.40;94.20
15409;DHT22;7803;48.130;13.788;2022-07-25T09:42:34;27.30;93.80
15409;DHT22;7803;48.130;13.788;2022-07-25T09:45:47;27.30;94.10
15409;DHT22;7803;48.130;13.788;2022-07-25T09:48:56;27.40;94.10
15409;DHT22;7803;48.130;13.788;2022-07-25T09:51:58;27.30;94.10
15409;DHT22;7803;48.130;13.788;2022-07-25T09:55:03;27.40;94.10
15409;DHT22;7803;48.130;13.788;2022-07-25T09:58:06;27.40;94.50
15409;DHT22;7803;48.130;13.788;2022-07-25T10:01:11;27.30;94.40
15409;DHT22;7803;48.130;13.788;2022-07-25T10:04:18;27.30;94.40
15409;DHT22;7803;48.130;13.788;2022-07-25T10:07:23;27.30;94.70
15409;DHT22;7803;48.130;13.788;2022-07-25T10:10:26;27.40;95.00
15409;DHT22;7803;48.130;13.788;2022-07-25T10:13:30;27.40;95.00
15409;DHT22;7803;48.130;13.788;2022-07-25T10:16:45;27.40;94.80
15409;DHT22;7803;48.130;13.788;2022-07-25T10:19:47;27.40;95.30
15409;DHT22;7803;48.130;13.788;2022-07-25T10:22:49;27.30;95.10
15409;DHT22;7803;48.130;13.788;2022-07-25T10:26:06;27.40;95.00
15409;DHT22;7803;48.130;13.788;2022-07-25T10:29:09;27.30;95.00
15409;DHT22;7803;48.130;13.788;2022-07-25T10:32:13;27.40;95.40
15409;DHT22;7803;48.130;13.788;2022-07-25T10:35:17;27.40;95.50
15409;DHT22;7803;48.130;13.788;2022-07-25T10:38:23;27.40;95.30
15409;DHT22;7803;48.130;13.788;2022-07-25T10:41:26;27.40;95.10
15409;DHT22;7803;48.130;13.788;2022-07-25T10:44:40;27.40;95.00
15409;DHT22;7803;48.130;13.788;2022-07-25T10:47:50;27.40;95.00
15409;DHT22;7803;48.130;13.788;2022-07-25T10:50:57;27.40;95.10
15409;DHT22;7803;48.130;13.788;2022-07-25T10:53:59;27.40;95.10
15409;DHT22;7803;48.130;13.788;2022-07-25T10:57:03;27.40;95.10
15409;DHT22;7803;48.130;13.788;2022-07-25T11:00:07;27.40;95.10
15409;DHT22;7803;48.130;13.788;2022-07-25T11:03:11;27.40;95.00
15409;DHT22;7803;48.130;13.788;2022-07-25T11:06:14;27.40;95.00
15409;DHT22;7803;48.130;13.788;2022-07-25T11:09:17;27.40;95.00
15409;DHT22;7803;48.130;13.788;2022-07-25T11:12:20;27.40;94.90
15409;DHT22;7803;48.130;13.788;2022-07-25T11:15:23;27.40;94.80
15409;DHT22;7803;48.130;13.788;2022-07-25T11:18:34;27.40;94.80
15409;DHT22;7803;48.130;13.788;2022-07-25T11:21:43;27.30;94.80
15409;DHT22;7803;48.130;13.788;2022-07-25T11:24:46;27.30;94.80
15409;DHT22;7803;48.130;13.788;2022-07-25T11:27:55;27.30;94.80
15409;DHT22;7803;48.130;13.788;2022-07-25T11:31:02;27.40;94.90
15409;DHT22;7803;48.130;13.788;2022-07-25T11:34:06;27.40;95.00
15409;DHT22;7803;48.130;13.788;2022-07-25T11:37:09;27.40;95.10
15409;DHT22;7803;48.130;13.788;2022-07-25T11:40:12;27.40;95.10
15409;DHT22;7803;48.130;13.788;2022-07-25T11:43:19;27.40;95.20
15409;DHT22;7803;48.130;13.788;2022-07-25T11:46:21;27.40;95.20
15409;DHT22;7803;48.130;13.788;2022-07-25T11:49:24;27.40;95.10
15409;DHT22;7803;48.130;13.788;2022-07-25T11:52:28;27.40;95.00
15409;DHT22;7803;48.130;13.788;2022-07-25T11:55:33;27.40;95.00
15409;DHT22;7803;48.130;13.788;2022-07-25T11:58:36;27.40;95.00
15409;DHT22;7803;48.130;13.788;2022-07-25T12:01:41;27.40;94.90
15409;DHT22;7803;48.130;13.788;2022-07-25T12:04:54;27.40;94.90
15409;DHT22;7803;48.130;13.788;2022-07-25T12:07:56;27.40;94.90
15409;DHT22;7803;48.130;13.788;2022-07-25T12:11:00;27.40;94.80
15409;DHT22;7803;48.130;13.788;2022-07-25T12:14:03;27.40;94.80
15409;DHT22;7803;48.130;13.788;2022-07-25T12:17:05;27.40;95.00
15409;DHT22;7803;48.130;13.788;2022-07-25T12:20:13;27.40;95.20
15409;DHT22;7803;48.130;13.788;2022-07-25T12:23:17;27.40;95.20
15409;DHT22;7803;48.130;13.788;2022-07-25T12:26:21;27.40;95.20
15409;DHT22;7803;48.130;13.788;2022-07-25T12:29:23;27.40;95.30
15409;DHT22;7803;48.130;13.788;2022-07-25T12:32:25;27.40;95.30
15409;DHT22;7803;48.130;13.788;2022-07-25T12:35:28;27.40;95.20
15409;DHT22;7803;48.130;13.788;2022-07-25T12:38:30;27.40;95.20
15409;DHT22;7803;48.130;13.788;2022-07-25T12:41:32;27.40;95.10
15409;DHT22;7803;48.130;13.788;2022-07-25T12:44:34;27.40;95.10
15409;DHT22;7803;48.130;13.788;2022-07-25T12:47:37;27.40;95.00
15409;DHT22;7803;48.130;13.788;2022-07-25T12:50:40;27.40;95.00
15409;DHT22;7803;48.130;13.788;2022-07-25T12:53:42;27.40;95.00
15409;DHT22;7803;48.130;13.788;2022-07-25T12:56:44;27.40;95.00
15409;DHT22;7803;48.130;13.788;2022-07-25T12:59:46;27.40;95.00
15409;DHT22;7803;48.130;13.788;2022-07-25T13:02:49;27.40;95.00
15409;DHT22;7803;48.130;13.788;2022-07-25T13:05:54;27.40;95.20
15409;DHT22;7803;48.130;13.788;2022-07-25T13:08:56;27.40;95.20
15409;DHT22;7803;48.130;13.788;2022-07-25T13:11:58;27.40;95.30
15409;DHT22;7803;48.130;13.788;2022-07-25T13:15:00;27.40;95.30
15409;DHT22;7803;48.130;13.788;2022-07-25T13:18:02;27.40;95.30
15409;DHT22;7803;48.130;13.788;2022-07-25T13:21:06;27.40;95.30
15409;DHT22;7803;48.130;13.788;2022-07-25T13:24:09;27.40;95.30
15409;DHT22;7803;48.130;13.788;2022-07-25T13:27:11;27.40;95.20
15409;DHT22;7803;48.130;13.788;2022-07-25T13:30:13;27.40;95.20
15409;DHT22;7803;48.130;13.788;2022-07-25T13:33:15;27.40;95.20
15409;DHT22;7803;48.130;13.788;2022-07-25T13:36:19;27.40;95.20
15409;DHT22;7803;48.130;13.788;2022-07-25T13:39:21;27.40;95.10
15409;DHT22;7803;48.130;13.788;2022-07-25T13:42:23;27.40;95.10
15409;DHT22;7803;48.130;13.788;2022-07-25T13:45:25;27.40;95.10
15409;DHT22;7803;48.130;13.788;2022-07-25T13:48:28;27.40;95.20
15409;DHT22;7803;48.130;13.788;2022-07-25T13:51:32;27.40;95.30
15409;DHT22;7803;48.130;13.788;2022-07-25T13:54:34;27.40;95.40
15409;DHT22;7803;48.130;13.788;2022-07-25T13:57:36;27.40;95.40
15409;DHT22;7803;48.130;13.788;2022-07-25T14:00:38;27.40;95.40
15409;DHT22;7803;48.130;13.788;2022-07-25T14:03:40;27.50;95.50
15409;DHT22;7803;48.130;13.788;2022-07-25T14:06:44;27.40;95.40
15409;DHT22;7803;48.130;13.788;2022-07-25T14:09:51;27.40;95.40
15409;DHT22;7803;48.130;13.788;2022-07-25T14:12:53;27.50;95.40
15409;DHT22;7803;48.130;13.788;2022-07-25T14:15:55;27.40;95.30
15409;DHT22;7803;48.130;13.788;2022-07-25T14:18:58;27.40;95.30
15409;DHT22;7803;48.130;13.788;2022-07-25T14:22:03;27.40;95.30
15409;DHT22;7803;48.130;13.788;2022-07-25T14:25:05;27.50;95.30
15409;DHT22;7803;48.130;13.788;2022-07-25T14:28:08;27.50;95.30
15409;DHT22;7803;48.130;13.788;2022-07-25T14:31:10;27.40;95.30
15409;DHT22;7803;48.130;13.788;2022-07-25T14:34:12;27.40;95.30
15409;DHT22;7803;48.130;13.788;2022-07-25T14:37:17;27.40;95.30
15409;DHT22;7803;48.130;13.788;2022-07-25T14:40:20;27.40;95.40
15409;DHT22;7803;48.130;13.788;2022-07-25T14:43:22;27.40;95.40
15409;DHT22;7803;48.130;13.788;2022-07-25T14:46:24;27.40;95.50
15409;DHT22;7803;48.130;13.788;2022-07-25T14:49:26;27.40;95.50
15409;DHT22;7803;48.130;13.788;2022-07-25T14:52:31;27.40;95.50
15409;DHT22;7803;48.130;13.788;2022-07-25T14:55:33;27.40;95.40
15409;DHT22;7803;48.130;13.788;2022-07-25T14:58:37;27.50;95.50
15409;DHT22;7803;48.130;13.788;2022-07-25T15:01:39;27.50;95.40
15409;DHT22;7803;48.130;13.788;2022-07-25T15:04:42;27.40;95.40
15409;DHT22;7803;48.130;13.788;2022-07-25T15:07:45;27.50;95.80
15409;DHT22;7803;48.130;13.788;2022-07-25T15:10:48;27.40;95.30
15409;DHT22;7803;48.130;13.788;2022-07-25T15:13:50;27.50;95.30
15409;DHT22;7803;48.130;13.788;2022-07-25T15:16:52;27.50;95.30
15409;DHT22;7803;48.130;13.788;2022-07-25T15:19:54;27.50;95.30
15409;DHT22;7803;48.130;13.788;2022-07-25T15:22:58;27.50;95.40
15409;DHT22;7803;48.130;13.788;2022-07-25T15:26:00;27.50;95.50
15409;DHT22;7803;48.130;13.788;2022-07-25T15:29:05;27.50;95.80
15409;DHT22;7803;48.130;13.788;2022-07-25T15:32:07;27.50;96.20
15409;DHT22;7803;48.130;13.788;2022-07-25T15:35:09;27.50;96.30
15409;DHT22;7803;48.130;13.788;2022-07-25T15:38:13;27.50;96.40
15409;DHT22;7803;48.130;13.788;2022-07-25T15:41:16;27.50;96.70
15409;DHT22;7803;48.130;13.788;2022-07-25T15:44:18;27.50;98.20
15409;DHT22;7803;48.130;13.788;2022-07-25T15:47:20;27.50;97.80
15409;DHT22;7803;48.130;13.788;2022-07-25T15:50:22;27.50;98.10
15409;DHT22;7803;48.130;13.788;2022-07-25T15:53:26;27.50;98.70
15409;DHT22;7803;48.130;13.788;2022-07-25T15:56:28;27.60;99.00
15409;DHT22;7803;48.130;13.788;2022-07-25T15:59:30;27.50;98.60
15409;DHT22;7803;48.130;13.788;2022-07-25T16:02:34;27.50;98.40
15409;DHT22;7803;48.130;13.788;2022-07-25T16:05:37;27.50;98.50
15409;DHT22;7803;48.130;13.788;2022-07-25T16:08:40;27.60;98.70
15409;DHT22;7803;48.130;13.788;2022-07-25T16:11:42;27.60;98.80
15409;DHT22;7803;48.130;13.788;2022-07-25T16:14:44;27.60;99.00
15409;DHT22;7803;48.130;13.788;2022-07-25T16:17:47;27.60;99.90
15409;DHT22;7803;48.130;13.788;2022-07-25T16:20:50;27.60;99.90
15409;DHT22;7803;48.130;13.788;2022-07-25T16:23:53;27.60;99.90
15409;DHT22;7803;48.130;13.788;2022-07-25T16:26:55;27.60;99.90
15409;DHT22;7803;48.130;13.788;2022-07-25T16:29:57;27.60;99.90
15409;DHT22;7803;48.130;13.788;2022-07-25T16:32:59;27.70;99.90
15409;DHT22;7803;48.130;13.788;2022-07-25T16:36:01;27.70;99.90
15409;DHT22;7803;48.130;13.788;2022-07-25T16:39:05;27.60;99.90
15409;DHT22;7803;48.130;13.788;2022-07-25T16:42:07;27.60;99.90
15409;DHT22;7803;48.130;13.788;2022-07-25T16:45:10;27.60;99.90
15409;DHT22;7803;48.130;13.788;2022-07-25T16:48:12;27.60;99.60
15409;DHT22;7803;48.130;13.788;2022-07-25T16:51:14;27.60;99.60
15409;DHT22;7803;48.130;13.788;2022-07-25T16:54:17;27.60;99.40
15409;DHT22;7803;48.130;13.788;2022-07-25T16:57:20;27.70;99.30
15409;DHT22;7803;48.130;13.788;2022-07-25T17:00:22;27.60;99.10
15409;DHT22;7803;48.130;13.788;2022-07-25T17:03:23;27.70;99.00
15409;DHT22;7803;48.130;13.788;2022-07-25T17:06:26;27.60;99.00
15409;DHT22;7803;48.130;13.788;2022-07-25T17:09:29;27.70;98.90
15409;DHT22;7803;48.130;13.788;2022-07-25T17:12:31;27.60;98.70
15409;DHT22;7803;48.130;13.788;2022-07-25T17:15:33;27.70;98.70
15409;DHT22;7803;48.130;13.788;2022-07-25T17:18:36;27.70;98.70
15409;DHT22;7803;48.130;13.788;2022-07-25T17:21:38;27.70;98.70
15409;DHT22;7803;48.130;13.788;2022-07-25T17:24:41;27.70;98.60
15409;DHT22;7803;48.130;13.788;2022-07-25T17:27:43;27.70;98.50
15409;DHT22;7803;48.130;13.788;2022-07-25T17:30:45;27.60;98.50
15409;DHT22;7803;48.130;13.788;2022-07-25T17:33:47;27.60;98.40
15409;DHT22;7803;48.130;13.788;2022-07-25T17:36:49;27.60;98.30
15409;DHT22;7803;48.130;13.788;2022-07-25T17:39:53;27.60;98.10
15409;DHT22;7803;48.130;13.788;2022-07-25T17:42:55;27.70;98.00
15409;DHT22;7803;48.130;13.788;2022-07-25T17:45:57;27.60;97.90
15409;DHT22;7803;48.130;13.788;2022-07-25T17:48:59;27.60;97.90
15409;DHT22;7803;48.130;13.788;2022-07-25T17:52:01;27.70;97.70
15409;DHT22;7803;48.130;13.788;2022-07-25T17:55:07;27.70;97.80
15409;DHT22;7803;48.130;13.788;2022-07-25T17:58:09;27.70;97.90
15409;DHT22;7803;48.130;13.788;2022-07-25T18:01:12;27.70;97.90
15409;DHT22;7803;48.130;13.788;2022-07-25T18:04:13;27.70;97.90
15409;DHT22;7803;48.130;13.788;2022-07-25T18:07:15;27.70;98.00
15409;DHT22;7803;48.130;13.788;2022-07-25T18:10:20;27.70;98.00
15409;DHT22;7803;48.130;13.788;2022-07-25T18:13:22;27.60;98.00
15409;DHT22;7803;48.130;13.788;2022-07-25T18:16:24;27.70;98.00
15409;DHT22;7803;48.130;13.788;2022-07-25T18:19:26;27.60;98.10
15409;DHT22;7803;48.130;13.788;2022-07-25T18:22:28;27.70;98.10
15409;DHT22;7803;48.130;13.788;2022-07-25T18:25:32;27.70;98.00
15409;DHT22;7803;48.130;13.788;2022-07-25T18:28:34;27.70;97.90
15409;DHT22;7803;48.130;13.788;2022-07-25T18:31:36;27.60;97.80
15409;DHT22;7803;48.130;13.788;2022-07-25T18:34:38;27.70;97.80
15409;DHT22;7803;48.130;13.788;2022-07-25T18:37:40;27.70;97.70
15409;DHT22;7803;48.130;13.788;2022-07-25T18:40:44;27.70;97.70
15409;DHT22;7803;48.130;13.788;2022-07-25T18:43:46;27.70;97.70
15409;DHT22;7803;48.130;13.788;2022-07-25T18:46:48;27.70;97.70
15409;DHT22;7803;48.130;13.788;2022-07-25T18:49:50;27.70;97.70
15409;DHT22;7803;48.130;13.788;2022-07-25T18:52:53;27.70;97.80
15409;DHT22;7803;48.130;13.788;2022-07-25T18:55:57;27.70;97.80
15409;DHT22;7803;48.130;13.788;2022-07-25T18:58:59;27.70;97.70
15409;DHT22;7803;48.130;13.788;2022-07-25T19:02:01;27.70;97.80
15409;DHT22;7803;48.130;13.788;2022-07-25T19:05:04;27.70;97.90
15409;DHT22;7803;48.130;13.788;2022-07-25T19:08:08;27.70;97.90
15409;DHT22;7803;48.130;13.788;2022-07-25T19:11:11;27.70;97.80
15409;DHT22;7803;48.130;13.788;2022-07-25T19:14:13;27.70;97.70